Terminal Aerodrome Forecast
Issued by NWS

Home | Current Version | Previous Version | Text Only | Print | Product List | Glossary On
Versions: 1 2 3 4 5 6 7 8 9 10 11 12 13 14 15 16 17 18
000
FTUS41 KCAR 282341
TAFBHB
TAF
KBHB 282341Z 2900/2924 VRB03KT P6SM VCTS BKN250CB
     FM290100 00000KT P6SM BKN250
     FM290700 00000KT 4SM BR BKN003
     FM291000 00000KT 1/2SM FG BKN001
     FM291200 VRB03KT 2SM BR BKN003
     FM291400 VRB03KT P6SM OVC020
     FM291600 12004KT 3SM -SHRA OVC040=

USA.gov is the U.S. government's official web portal to all federal, state and local government web resources and services.